createdAt,value
2022-10-05T00:01:34.688Z,9.38
2022-10-05T00:04:19.005Z,9.32
2022-10-05T00:06:55.949Z,9.30
2022-10-05T00:09:24.047Z,9.30
2022-10-05T00:11:51.841Z,9.35
2022-10-05T00:14:30.075Z,9.30
2022-10-05T00:16:58.089Z,9.26
2022-10-05T00:19:37.360Z,9.36
2022-10-05T00:22:17.486Z,9.30
2022-10-05T00:24:46.526Z,9.21
2022-10-05T00:27:26.017Z,9.25
2022-10-05T00:29:58.973Z,9.33
2022-10-05T00:32:27.406Z,9.33
2022-10-05T00:34:55.057Z,9.36
2022-10-05T00:37:22.577Z,9.36
2022-10-05T00:39:50.135Z,9.43
2022-10-05T00:42:45.952Z,9.35
2022-10-05T00:45:16.352Z,9.41
2022-10-05T00:47:49.967Z,9.42
2022-10-05T00:50:25.637Z,9.34
2022-10-05T00:53:10.604Z,9.39
2022-10-05T00:56:04.518Z,9.37
2022-10-05T00:59:11.158Z,9.39
2022-10-05T01:01:38.863Z,9.23
2022-10-05T01:04:29.335Z,9.35
2022-10-05T01:07:00.322Z,9.28
2022-10-05T01:09:37.162Z,9.28
2022-10-05T01:12:23.174Z,9.34
2022-10-05T01:15:08.765Z,9.24
2022-10-05T01:17:45.057Z,9.42
2022-10-05T01:20:15.604Z,9.34
2022-10-05T01:23:24.669Z,9.36
2022-10-05T01:26:16.362Z,9.32
2022-10-05T01:29:22.897Z,9.28
2022-10-05T01:32:02.154Z,9.24
2022-10-05T01:34:32.420Z,9.25
2022-10-05T01:37:27.597Z,9.24
2022-10-05T01:39:59.276Z,9.25
2022-10-05T01:42:26.747Z,9.23
2022-10-05T01:45:02.530Z,9.25
2022-10-05T01:47:42.950Z,9.22
2022-10-05T01:50:19.248Z,9.28
2022-10-05T01:53:04.819Z,9.28
2022-10-05T01:56:02.631Z,9.35
2022-10-05T01:58:39.243Z,9.17
2022-10-05T02:01:25.490Z,9.28
2022-10-05T02:04:04.515Z,9.24
2022-10-05T02:06:39.090Z,9.23
2022-10-05T02:09:15.365Z,9.25
2022-10-05T02:11:47.712Z,9.31
2022-10-05T02:14:23.932Z,9.29
2022-10-05T02:16:56.360Z,9.30
2022-10-05T02:19:29.942Z,9.28
2022-10-05T02:22:26.999Z,9.43
2022-10-05T02:25:03.202Z,9.27
2022-10-05T02:27:40.936Z,9.23
2022-10-05T02:30:28.922Z,9.17
2022-10-05T02:33:01.450Z,9.12
2022-10-05T02:35:29.075Z,9.14
2022-10-05T02:38:27.129Z,9.21
2022-10-05T02:50:34.609Z,9.11
2022-10-05T02:53:14.805Z,9.12
2022-10-05T02:56:00.480Z,9.20
2022-10-05T02:58:37.936Z,9.09
2022-10-05T03:01:30.984Z,9.34
2022-10-05T03:03:58.348Z,9.17
2022-10-05T03:06:38.850Z,9.13
2022-10-05T03:09:09.365Z,9.10
2022-10-05T03:11:54.137Z,9.11
2022-10-05T03:14:40.666Z,9.16
2022-10-05T03:17:30.023Z,9.07
2022-10-05T03:19:57.628Z,9.03
2022-10-05T03:22:47.043Z,8.98
2022-10-05T03:25:42.246Z,9.03
2022-10-05T03:28:27.067Z,9.01
2022-10-05T03:31:03.125Z,8.95
2022-10-05T03:33:53.052Z,9.00
2022-10-05T03:36:20.725Z,8.93
2022-10-05T03:39:12.169Z,8.85
2022-10-05T03:41:49.209Z,8.88
2022-10-05T03:44:19.969Z,9.04
2022-10-05T03:47:08.979Z,8.89
2022-10-05T03:49:58.347Z,8.81
2022-10-05T03:52:35.983Z,8.77
2022-10-05T03:55:30.468Z,8.91
2022-10-05T03:58:06.460Z,8.81
2022-10-05T04:00:35.721Z,8.86
2022-10-05T04:03:34.619Z,9.04
2022-10-05T04:06:11.474Z,9.06
2022-10-05T04:09:14.300Z,8.93
2022-10-05T04:12:23.729Z,8.99
2022-10-05T04:14:57.212Z,8.84
2022-10-05T04:17:42.803Z,8.82
2022-10-05T04:20:27.210Z,8.82
2022-10-05T04:23:09.843Z,8.78
2022-10-05T04:25:46.400Z,8.80
2022-10-05T04:28:38.874Z,8.82
2022-10-05T04:31:11.676Z,8.84
2022-10-05T04:33:39.390Z,8.78
2022-10-05T04:36:27.886Z,8.87
2022-10-05T04:39:07.578Z,8.90
2022-10-05T04:41:43.322Z,8.91
2022-10-05T04:44:41.500Z,8.93
2022-10-05T04:47:37.010Z,9.08
2022-10-05T04:50:40.102Z,9.11
2022-10-05T04:53:33.677Z,9.09
2022-10-05T04:56:40.049Z,9.10
2022-10-05T04:59:45.435Z,9.17
2022-10-05T05:02:22.094Z,9.12
2022-10-05T05:04:59.732Z,9.11
2022-10-05T05:08:15.296Z,9.30
2022-10-05T05:10:43.390Z,9.23
2022-10-05T05:14:01.821Z,9.30
2022-10-05T05:16:42.630Z,9.30
2022-10-05T05:19:41.324Z,9.39
2022-10-05T05:22:45.643Z,9.40
2022-10-05T05:25:34.801Z,9.45
2022-10-05T05:28:56.338Z,9.46
2022-10-05T05:31:43.892Z,9.39
2022-10-05T05:34:26.714Z,9.38
2022-10-05T05:37:06.659Z,9.29
2022-10-05T05:39:45.772Z,9.27
2022-10-05T05:42:20.801Z,9.29
2022-10-05T05:44:52.180Z,9.26
2022-10-05T05:47:35.535Z,9.35
2022-10-05T05:50:30.531Z,9.40
2022-10-05T05:53:06.523Z,9.43
2022-10-05T05:55:43.460Z,9.52
2022-10-05T05:58:37.388Z,9.53
2022-10-05T06:01:44.308Z,9.42
2022-10-05T06:04:26.847Z,9.66
2022-10-05T06:06:57.184Z,9.55
2022-10-05T06:09:39.435Z,9.63
2022-10-05T06:12:42.006Z,9.61
2022-10-05T06:15:35.166Z,9.70
2022-10-05T06:18:11.060Z,9.61
2022-10-05T06:21:01.818Z,9.55
2022-10-05T06:23:39.252Z,9.58
2022-10-05T06:26:18.137Z,9.63
2022-10-05T06:28:52.704Z,9.64
2022-10-05T06:31:54.206Z,9.78
2022-10-05T06:34:39.757Z,9.89
2022-10-05T06:37:25.362Z,10.00
2022-10-05T06:40:08.110Z,10.21
2022-10-05T06:42:56.930Z,10.33
2022-10-05T06:46:14.807Z,10.43
2022-10-05T06:49:54.892Z,10.70
2022-10-05T06:53:36.030Z,10.89
2022-10-05T06:56:29.430Z,10.95
2022-10-05T06:59:03.979Z,10.91
2022-10-05T07:01:34.980Z,10.94
2022-10-05T07:04:46.497Z,11.05
2022-10-05T07:07:35.372Z,10.96
2022-10-05T07:10:22.650Z,10.99
2022-10-05T07:12:56.565Z,10.93
2022-10-05T07:15:41.654Z,10.92
2022-10-05T07:18:25.568Z,11.01
2022-10-05T07:21:19.093Z,10.88
2022-10-05T07:24:23.486Z,11.05
2022-10-05T07:27:02.253Z,10.97
2022-10-05T07:29:51.730Z,11.00
2022-10-05T07:32:22.514Z,10.94
2022-10-05T07:35:41.877Z,11.06
2022-10-05T07:38:37.892Z,11.35
2022-10-05T07:41:28.235Z,11.32
2022-10-05T07:44:02.527Z,11.44
2022-10-05T07:46:41.157Z,11.40
2022-10-05T07:49:37.834Z,11.43
2022-10-05T07:52:14.077Z,11.27
2022-10-05T07:54:46.655Z,11.24
2022-10-05T07:57:27.167Z,11.24
2022-10-05T08:00:14.658Z,11.32
2022-10-05T08:03:29.830Z,11.44
2022-10-05T08:06:00.418Z,11.24
2022-10-05T08:08:42.981Z,11.16
2022-10-05T08:11:43.539Z,11.01
2022-10-05T08:14:24.601Z,10.93
2022-10-05T08:16:58.433Z,10.85
2022-10-05T08:19:49.038Z,11.00
2022-10-05T08:22:25.390Z,10.99
2022-10-05T08:25:00.994Z,11.14
2022-10-05T08:27:52.765Z,11.29
2022-10-05T08:30:20.549Z,11.19
2022-10-05T08:33:20.596Z,11.31
2022-10-05T08:36:12.599Z,11.28
2022-10-05T08:38:42.170Z,11.13
2022-10-05T08:41:40.944Z,11.18
2022-10-05T08:44:33.481Z,11.16
2022-10-05T08:47:03.216Z,11.07
2022-10-05T08:49:52.321Z,11.07
2022-10-05T08:52:41.907Z,11.14
2022-10-05T08:55:10.880Z,11.02
2022-10-05T08:57:50.293Z,11.03
2022-10-05T09:00:19.785Z,10.94
2022-10-05T09:03:24.450Z,10.98
2022-10-05T09:06:29.452Z,10.89
2022-10-05T09:09:21.660Z,10.74
2022-10-05T09:12:20.481Z,10.72
2022-10-05T09:15:25.469Z,10.61
2022-10-05T09:18:19.649Z,10.69
2022-10-05T09:20:54.223Z,10.70
2022-10-05T09:23:37.332Z,10.85
2022-10-05T09:26:09.447Z,11.05
2022-10-05T09:28:49.011Z,11.30
2022-10-05T09:31:33.734Z,11.61
2022-10-05T09:34:31.373Z,12.24
2022-10-05T09:37:23.552Z,13.67
2022-10-05T09:40:20.394Z,14.45
2022-10-05T09:43:36.112Z,14.23
2022-10-05T09:46:40.421Z,13.76
2022-10-05T09:49:16.954Z,13.50
2022-10-05T09:51:53.618Z,13.41
2022-10-05T09:54:33.118Z,13.43
2022-10-05T09:57:37.503Z,13.47
2022-10-05T10:00:21.860Z,13.31
2022-10-05T10:02:55.423Z,13.16
2022-10-05T10:05:34.777Z,13.08
2022-10-05T10:08:29.724Z,12.99
2022-10-05T10:11:08.109Z,12.56
2022-10-05T10:14:09.534Z,12.53
2022-10-05T10:17:14.508Z,12.40
2022-10-05T10:19:42.026Z,12.15
2022-10-05T10:22:43.071Z,12.06
2022-10-05T10:25:31.880Z,11.89
2022-10-05T10:28:24.426Z,11.72
2022-10-05T10:31:29.736Z,11.75
2022-10-05T10:34:10.304Z,12.34
2022-10-05T10:37:19.259Z,13.58
2022-10-05T10:40:00.300Z,16.23
2022-10-05T10:42:39.607Z,19.91
2022-10-05T10:45:28.844Z,22.91
2022-10-05T10:48:27.052Z,22.60
2022-10-05T10:51:03.449Z,21.73
2022-10-05T10:54:07.628Z,20.69
2022-10-05T10:56:56.272Z,18.75
2022-10-05T11:00:01.040Z,17.44
2022-10-05T11:02:42.611Z,16.39
2022-10-05T11:05:42.258Z,15.70
2022-10-05T11:08:38.879Z,15.03
2022-10-05T11:11:27.408Z,14.76
2022-10-05T11:14:07.011Z,14.52
2022-10-05T11:17:08.364Z,14.58
2022-10-05T11:20:04.737Z,14.34
2022-10-05T11:22:51.930Z,14.58
2022-10-05T11:25:46.810Z,14.59
2022-10-05T11:28:37.881Z,14.64
2022-10-05T11:31:30.330Z,15.27
2022-10-05T11:33:57.959Z,16.24
2022-10-05T11:36:56.564Z,17.04
2022-10-05T11:39:37.150Z,16.50
2022-10-05T11:42:34.364Z,15.81
2022-10-05T11:45:22.030Z,14.85
2022-10-05T11:48:04.681Z,14.78
2022-10-05T11:50:41.259Z,15.14
2022-10-05T11:53:27.244Z,16.63
2022-10-05T11:56:22.083Z,17.56
2022-10-05T11:58:54.272Z,17.44
2022-10-05T12:01:44.098Z,16.62
2022-10-05T12:04:23.723Z,15.71
2022-10-05T12:07:24.289Z,14.87
2022-10-05T12:10:31.676Z,14.21
2022-10-05T12:13:12.461Z,13.55
2022-10-05T12:16:03.965Z,13.44
2022-10-05T12:18:34.669Z,13.26
2022-10-05T12:21:25.271Z,13.12
2022-10-05T12:23:58.473Z,13.11
2022-10-05T12:26:31.925Z,12.99
2022-10-05T12:29:14.330Z,12.86
2022-10-05T12:32:03.889Z,12.63
2022-10-05T12:34:43.780Z,12.42
2022-10-05T12:37:32.725Z,12.22
2022-10-05T12:40:06.397Z,12.13
2022-10-05T12:42:46.519Z,12.10
2022-10-05T12:45:21.891Z,11.92
2022-10-05T12:48:14.479Z,11.93
2022-10-05T12:50:48.510Z,11.69
2022-10-05T12:53:55.564Z,11.72
2022-10-05T12:56:41.470Z,11.60
2022-10-05T12:59:21.351Z,11.56
2022-10-05T13:01:53.069Z,11.51
2022-10-05T13:04:27.083Z,11.40
2022-10-05T13:07:19.859Z,11.39
2022-10-05T13:09:59.968Z,11.25
2022-10-05T13:12:41.365Z,11.33
2022-10-05T13:15:21.504Z,11.42
2022-10-05T13:18:18.970Z,11.62
2022-10-05T13:20:52.450Z,11.61
2022-10-05T13:23:57.536Z,11.56
2022-10-05T13:26:40.871Z,11.37
2022-10-05T13:29:27.524Z,11.25
2022-10-05T13:32:06.910Z,11.04
2022-10-05T13:35:00.523Z,11.03
2022-10-05T13:37:40.275Z,10.91
2022-10-05T13:40:13.248Z,10.91
2022-10-05T13:42:50.755Z,10.99
2022-10-05T13:45:26.739Z,11.19
2022-10-05T13:48:00.354Z,11.00
2022-10-05T13:50:35.250Z,10.87
2022-10-05T13:53:26.644Z,10.85
2022-10-05T13:56:07.688Z,10.70
2022-10-05T13:58:41.872Z,10.62
2022-10-05T14:01:19.371Z,10.60
2022-10-05T14:04:16.654Z,10.61
2022-10-05T14:06:45.288Z,10.50
2022-10-05T14:09:21.274Z,10.49
2022-10-05T14:11:51.874Z,10.52
2022-10-05T14:14:30.791Z,10.56
2022-10-05T14:19:49.245Z,10.43
2022-10-05T14:22:24.064Z,10.32
2022-10-05T14:24:52.781Z,10.15
2022-10-05T14:27:24.994Z,10.07
2022-10-05T14:30:15.889Z,9.99
2022-10-05T14:32:51.930Z,9.94
2022-10-05T14:35:26.155Z,9.93
2022-10-05T14:37:56.847Z,9.96
2022-10-05T14:40:32.692Z,9.96
2022-10-05T14:43:15.767Z,9.94
2022-10-05T14:46:03.341Z,10.00
2022-10-05T14:48:43.626Z,9.98
2022-10-05T14:51:25.108Z,9.91
2022-10-05T14:54:18.223Z,9.89
2022-10-05T14:57:14.780Z,9.91
2022-10-05T14:59:56.888Z,9.77
2022-10-05T15:03:05.279Z,9.75
2022-10-05T15:05:37.793Z,9.65
2022-10-05T15:08:33.897Z,9.65
2022-10-05T15:11:29.367Z,9.65
2022-10-05T15:13:59.667Z,9.61
2022-10-05T15:16:33.912Z,9.63
2022-10-05T15:19:12.601Z,9.67
2022-10-05T15:22:11.657Z,9.65
2022-10-05T15:24:52.926Z,9.59
2022-10-05T15:27:45.097Z,9.70
2022-10-05T15:30:18.889Z,9.66
2022-10-05T15:33:09.870Z,9.69
2022-10-05T15:36:04.302Z,9.65
2022-10-05T15:38:54.182Z,9.64
2022-10-05T15:41:41.106Z,9.63
2022-10-05T15:44:21.096Z,9.63
2022-10-05T15:47:03.298Z,9.56
2022-10-05T15:49:47.571Z,9.58
2022-10-05T15:52:18.380Z,9.51
2022-10-05T15:55:18.569Z,9.58
2022-10-05T15:58:12.339Z,9.56
2022-10-05T16:00:48.267Z,9.49
2022-10-05T16:03:29.305Z,9.45
2022-10-05T16:06:28.146Z,9.48
2022-10-05T16:09:25.368Z,9.50
2022-10-05T16:12:15.237Z,9.47
2022-10-05T16:15:16.896Z,9.50
2022-10-05T16:18:04.345Z,9.47
2022-10-05T16:20:38.744Z,9.47
2022-10-05T16:23:28.320Z,9.52
2022-10-05T16:26:15.286Z,9.45
2022-10-05T16:28:57.165Z,9.45
2022-10-05T16:31:59.830Z,9.53
2022-10-05T16:34:52.446Z,9.53
2022-10-05T16:37:59.887Z,9.55
2022-10-05T16:41:14.431Z,9.52
2022-10-05T16:43:56.683Z,9.43
2022-10-05T16:46:37.566Z,9.31
2022-10-05T16:49:27.225Z,9.28
2022-10-05T16:52:05.876Z,9.17
2022-10-05T16:54:46.856Z,9.08
2022-10-05T16:57:38.968Z,9.06
2022-10-05T17:00:24.434Z,9.04
2022-10-05T17:03:27.717Z,9.01
2022-10-05T17:06:32.626Z,9.03
2022-10-05T17:09:07.327Z,8.98
2022-10-05T17:11:51.921Z,8.94
2022-10-05T17:14:20.479Z,8.90
2022-10-05T17:17:09.773Z,8.98
2022-10-05T17:19:53.633Z,9.04
2022-10-05T17:22:29.668Z,9.03
2022-10-05T17:25:34.344Z,9.14
2022-10-05T17:28:24.052Z,9.12
2022-10-05T17:31:17.323Z,9.19
2022-10-05T17:34:00.925Z,9.21
2022-10-05T17:36:43.760Z,9.19
2022-10-05T17:39:23.514Z,9.21
2022-10-05T17:41:51.746Z,9.12
2022-10-05T17:44:26.242Z,9.16
2022-10-05T17:47:05.186Z,9.21
2022-10-05T17:50:14.733Z,9.19
2022-10-05T17:53:03.930Z,9.22
2022-10-05T17:55:35.006Z,9.22
2022-10-05T17:58:24.867Z,9.24
2022-10-05T18:01:00.328Z,9.18
2022-10-05T18:03:53.035Z,9.15
2022-10-05T18:06:34.215Z,8.97
2022-10-05T18:09:23.730Z,8.91
2022-10-05T18:12:16.347Z,8.79
2022-10-05T18:15:06.092Z,8.71
2022-10-05T18:17:45.819Z,8.63
2022-10-05T18:20:27.745Z,8.61
2022-10-05T18:23:07.994Z,8.70
2022-10-05T18:26:06.190Z,8.72
2022-10-05T18:29:16.315Z,8.67
2022-10-05T18:31:59.912Z,8.48
2022-10-05T18:34:36.936Z,8.45
2022-10-05T18:37:23.913Z,8.44
2022-10-05T18:39:59.410Z,8.33
2022-10-05T18:42:43.618Z,8.36
2022-10-05T18:45:25.695Z,8.29
2022-10-05T18:48:24.129Z,8.27
2022-10-05T18:51:11.198Z,8.33
2022-10-05T18:53:47.798Z,8.15
2022-10-05T18:56:30.620Z,8.10
2022-10-05T18:59:10.561Z,8.00
2022-10-05T19:01:54.097Z,8.07
2022-10-05T19:04:28.484Z,8.03
2022-10-05T19:07:30.753Z,8.05
2022-10-05T19:10:35.250Z,7.96
2022-10-05T19:13:20.208Z,7.92
2022-10-05T19:16:35.743Z,7.95
2022-10-05T19:19:41.175Z,8.04
2022-10-05T19:22:24.457Z,8.09
2022-10-05T19:25:27.651Z,8.24
2022-10-05T19:28:22.697Z,8.21
2022-10-05T19:30:53.457Z,8.31
2022-10-05T19:33:32.031Z,8.35
2022-10-05T19:36:18.638Z,8.44
2022-10-05T19:39:16.435Z,8.43
2022-10-05T19:41:44.325Z,8.45
2022-10-05T19:44:16.863Z,8.50
2022-10-05T19:47:01.008Z,8.49
2022-10-05T19:49:57.239Z,8.55
2022-10-05T19:52:37.930Z,8.58
2022-10-05T19:55:25.095Z,8.57
2022-10-05T19:57:55.508Z,8.61
2022-10-05T20:00:31.411Z,8.64
2022-10-05T20:03:23.995Z,8.75
2022-10-05T20:05:53.204Z,8.69
2022-10-05T20:08:27.683Z,8.72
2022-10-05T20:11:22.982Z,8.85
2022-10-05T20:13:53.582Z,8.83
2022-10-05T20:16:53.185Z,8.88
2022-10-05T20:19:51.586Z,8.88
2022-10-05T20:22:41.025Z,8.96
2022-10-05T20:25:29.686Z,8.96
2022-10-05T20:27:57.897Z,8.89
2022-10-05T20:30:30.990Z,8.88
2022-10-05T20:33:04.676Z,8.91
2022-10-05T20:35:32.257Z,8.82
2022-10-05T20:38:00.444Z,8.84
2022-10-05T20:40:30.228Z,8.83
2022-10-05T20:42:58.962Z,8.82
2022-10-05T20:45:26.667Z,8.88
2022-10-05T20:47:54.279Z,8.88
2022-10-05T20:50:22.454Z,8.82
2022-10-05T20:52:50.089Z,8.82
2022-10-05T20:55:17.610Z,8.80
2022-10-05T20:57:46.297Z,8.77
2022-10-05T21:00:14.337Z,8.71
2022-10-05T21:02:41.805Z,8.79
2022-10-05T21:05:09.934Z,8.78
2022-10-05T21:07:37.635Z,8.78
2022-10-05T21:10:05.734Z,8.70
2022-10-05T21:12:34.769Z,8.76
2022-10-05T21:15:04.812Z,8.76
2022-10-05T21:17:34.802Z,8.79
2022-10-05T21:20:02.515Z,8.80
2022-10-05T21:22:30.546Z,8.79
2022-10-05T21:24:58.613Z,8.82
2022-10-05T21:27:26.200Z,8.89
2022-10-05T21:29:53.874Z,8.90
2022-10-05T21:32:21.382Z,8.93
2022-10-05T21:34:48.929Z,8.93
2022-10-05T21:37:16.685Z,8.86
2022-10-05T21:39:44.402Z,8.93
2022-10-05T21:42:11.877Z,8.98
2022-10-05T21:44:39.411Z,8.93
2022-10-05T21:47:07.173Z,8.99
2022-10-05T21:49:36.480Z,8.99
2022-10-05T21:52:05.590Z,9.03
2022-10-05T21:54:34.113Z,9.00
2022-10-05T21:57:02.407Z,9.03
2022-10-05T21:59:33.532Z,8.99
2022-10-05T22:02:02.473Z,9.04
2022-10-05T22:04:30.086Z,9.06
2022-10-05T22:06:57.859Z,9.05
2022-10-05T22:09:25.530Z,9.06
2022-10-05T22:11:53.335Z,9.06
2022-10-05T22:14:21.196Z,9.01
2022-10-05T22:16:48.909Z,9.05
2022-10-05T22:19:19.434Z,9.05
2022-10-05T22:21:47.397Z,9.05
2022-10-05T22:24:14.874Z,9.08
2022-10-05T22:26:46.007Z,9.09
2022-10-05T22:29:16.263Z,9.09
2022-10-05T22:31:48.679Z,9.06
2022-10-05T22:34:16.961Z,9.13
2022-10-05T22:36:44.634Z,9.13
2022-10-05T22:39:12.141Z,9.10
2022-10-05T22:41:39.763Z,9.11
2022-10-05T22:44:07.434Z,9.15
2022-10-05T22:46:35.527Z,9.14
2022-10-05T22:49:03.039Z,9.10
2022-10-05T22:51:30.696Z,9.14
2022-10-05T22:53:58.206Z,9.12
2022-10-05T22:56:25.791Z,9.14
2022-10-05T22:58:53.317Z,9.16
2022-10-05T23:04:05.584Z,9.21
2022-10-05T23:06:33.091Z,9.24
2022-10-05T23:09:00.708Z,9.20
2022-10-05T23:11:28.909Z,9.21
2022-10-05T23:13:57.422Z,9.22
2022-10-05T23:16:27.134Z,9.21
2022-10-05T23:18:55.493Z,9.24
2022-10-05T23:21:25.276Z,9.19
2022-10-05T23:23:52.865Z,9.21
2022-10-05T23:26:22.928Z,9.27
2022-10-05T23:28:51.135Z,9.29
2022-10-05T23:31:22.070Z,9.29
2022-10-05T23:33:49.931Z,9.25
2022-10-05T23:36:20.319Z,9.32
2022-10-05T23:38:48.527Z,9.34
2022-10-05T23:41:20.095Z,9.31
2022-10-05T23:43:47.953Z,9.30
2022-10-05T23:46:17.786Z,9.36
2022-10-05T23:48:45.419Z,9.39
2022-10-05T23:51:14.001Z,9.32
2022-10-05T23:53:41.673Z,9.37
2022-10-05T23:56:09.277Z,9.35
2022-10-05T23:58:36.888Z,9.36
